createdAt,value
2022-10-09T00:00:03.285Z,99.9
2022-10-09T00:02:07.174Z,99.9
2022-10-09T00:04:11.044Z,99.9
2022-10-09T00:06:14.991Z,99.9
2022-10-09T00:08:18.864Z,99.9
2022-10-09T00:10:25.488Z,99.9
2022-10-09T00:12:29.339Z,99.9
2022-10-09T00:14:33.274Z,99.9
2022-10-09T00:15:36.631Z,99.9
2022-10-09T00:17:40.571Z,99.9
2022-10-09T00:19:44.520Z,99.9
2022-10-09T00:21:48.372Z,99.9
2022-10-09T00:23:55.233Z,99.9
2022-10-09T00:25:59.170Z,99.9
2022-10-09T00:28:03.144Z,99.9
2022-10-09T00:30:07.066Z,99.9
2022-10-09T00:34:14.750Z,99.9
2022-10-09T00:36:18.645Z,99.9
2022-10-09T00:38:25.318Z,99.9
2022-10-09T00:40:29.275Z,99.9
2022-10-09T00:42:33.107Z,99.9
2022-10-09T00:44:36.925Z,99.9
2022-10-09T00:46:40.763Z,99.9
2022-10-09T00:50:48.518Z,99.9
2022-10-09T00:52:55.313Z,99.9
2022-10-09T00:54:59.235Z,99.9
2022-10-09T00:57:03.180Z,99.9
2022-10-09T00:59:07.105Z,99.9
2022-10-09T01:01:11.100Z,99.9
2022-10-09T01:03:14.981Z,99.9
2022-10-09T01:05:18.931Z,99.9
2022-10-09T01:07:25.751Z,99.9
2022-10-09T01:09:29.680Z,99.9
2022-10-09T01:11:33.602Z,99.9
2022-10-09T01:12:36.940Z,99.9
2022-10-09T01:14:40.877Z,99.9
2022-10-09T01:18:48.641Z,99.9
2022-10-09T01:22:59.312Z,99.9
2022-10-09T01:25:03.139Z,99.9
2022-10-09T01:27:06.969Z,99.9
2022-10-09T01:29:10.885Z,99.9
2022-10-09T01:33:18.765Z,99.9
2022-10-09T01:35:25.588Z,99.9
2022-10-09T01:37:29.524Z,99.9
2022-10-09T01:41:37.359Z,99.9
2022-10-09T01:43:41.315Z,99.9
2022-10-09T01:45:45.147Z,99.9
2022-10-09T01:47:49.072Z,99.9
2022-10-09T01:49:55.910Z,99.9
2022-10-09T01:51:59.745Z,99.9
2022-10-09T01:54:03.544Z,99.9
2022-10-09T01:56:07.375Z,99.9
2022-10-09T02:02:19.074Z,99.9
2022-10-09T02:04:25.668Z,99.9
2022-10-09T02:06:29.479Z,99.9
2022-10-09T02:08:33.408Z,99.9
2022-10-09T02:10:57.340Z,99.9
2022-10-09T02:13:01.179Z,99.9
2022-10-09T02:21:19.716Z,99.9
2022-10-09T02:25:27.573Z,99.9
2022-10-09T02:31:42.199Z,99.9
2022-10-09T02:33:46.000Z,99.9
2022-10-09T02:35:49.859Z,99.9
2022-10-09T02:37:53.772Z,99.9
2022-10-09T02:39:57.607Z,99.9
2022-10-09T02:42:01.484Z,99.9
2022-10-09T02:44:05.305Z,99.9
2022-10-09T02:46:12.019Z,99.9
2022-10-09T02:48:15.882Z,99.9
2022-10-09T02:50:19.776Z,99.9
2022-10-09T02:52:23.698Z,99.9
2022-10-09T03:00:42.272Z,99.9
2022-10-09T03:04:50.094Z,99.9
2022-10-09T03:05:53.397Z,99.9
2022-10-09T03:07:57.220Z,99.9
2022-10-09T03:10:01.174Z,99.9
2022-10-09T03:12:04.969Z,99.9
2022-10-09T03:14:13.296Z,99.9
2022-10-09T03:16:17.300Z,99.9
2022-10-09T03:18:21.104Z,99.9
2022-10-09T03:20:25.019Z,99.9
2022-10-09T03:22:28.917Z,99.9
2022-10-09T03:24:32.732Z,99.9
2022-10-09T03:26:36.632Z,99.9
2022-10-09T03:28:43.555Z,99.9
2022-10-09T03:30:47.372Z,99.9
2022-10-09T03:32:51.577Z,99.9
2022-10-09T03:34:55.194Z,99.9
2022-10-09T03:36:59.114Z,99.9
2022-10-09T03:39:03.005Z,99.9
2022-10-09T03:41:06.913Z,99.9
2022-10-09T03:43:13.628Z,99.9
2022-10-09T03:45:17.519Z,99.9
2022-10-09T03:47:21.444Z,99.9
2022-10-09T03:49:25.246Z,99.9
2022-10-09T03:51:29.035Z,99.9
2022-10-09T03:53:32.859Z,99.9
2022-10-09T03:55:36.750Z,99.9
2022-10-09T03:57:43.570Z,99.9
2022-10-09T03:59:47.502Z,99.9
2022-10-09T04:01:51.376Z,99.9
2022-10-09T04:07:02.522Z,99.9
2022-10-09T04:09:06.403Z,99.9
2022-10-09T04:11:13.252Z,99.9
2022-10-09T04:13:17.157Z,99.9
2022-10-09T04:15:21.077Z,99.9
2022-10-09T04:19:28.858Z,99.9
2022-10-09T04:21:32.698Z,99.9
2022-10-09T04:23:36.589Z,99.9
2022-10-09T04:25:43.298Z,99.9
2022-10-09T04:27:47.204Z,99.9
2022-10-09T04:31:54.912Z,99.9
2022-10-09T04:33:58.787Z,99.9
2022-10-09T04:36:02.701Z,99.9
2022-10-09T04:38:06.488Z,99.9
2022-10-09T04:40:13.105Z,99.9
2022-10-09T04:42:16.882Z,99.9
2022-10-09T04:44:20.783Z,99.9
2022-10-09T04:46:24.567Z,99.9
2022-10-09T04:48:28.467Z,99.9
2022-10-09T04:50:32.351Z,99.9
2022-10-09T04:52:36.142Z,99.9
2022-10-09T04:56:46.677Z,99.9
2022-10-09T04:58:50.455Z,99.9
2022-10-09T04:59:53.862Z,99.9
2022-10-09T05:01:57.785Z,99.9
2022-10-09T05:04:01.549Z,99.9
2022-10-09T05:06:05.424Z,99.9
2022-10-09T05:08:12.260Z,99.9
2022-10-09T05:10:16.144Z,99.9
2022-10-09T05:12:20.039Z,99.9
2022-10-09T05:16:27.909Z,99.9
2022-10-09T05:20:35.625Z,99.9
2022-10-09T05:22:42.438Z,99.9
2022-10-09T05:24:46.306Z,99.9
2022-10-09T05:26:50.174Z,99.9
2022-10-09T05:28:53.985Z,99.9
2022-10-09T05:37:12.268Z,99.9
2022-10-09T05:41:20.059Z,99.9
2022-10-09T05:43:23.842Z,99.9
2022-10-09T05:45:27.821Z,99.9
2022-10-09T05:47:31.611Z,99.9
2022-10-09T05:49:35.498Z,99.9
2022-10-09T05:51:42.336Z,99.9
2022-10-09T05:53:46.187Z,99.9
2022-10-09T05:55:50.060Z,99.9
2022-10-09T05:58:08.231Z,99.9
2022-10-09T06:00:12.051Z,99.9
2022-10-09T06:02:15.975Z,99.9
2022-10-09T06:04:22.710Z,99.9
2022-10-09T06:06:26.628Z,99.9
2022-10-09T06:08:30.510Z,99.9
2022-10-09T06:10:34.373Z,99.9
2022-10-09T06:12:38.254Z,99.9
2022-10-09T06:14:42.172Z,99.9
2022-10-09T06:16:46.281Z,99.9
2022-10-09T06:18:52.771Z,99.9
2022-10-09T06:20:56.637Z,99.9
2022-10-09T06:23:00.525Z,99.9
2022-10-09T06:25:04.450Z,99.9
2022-10-09T06:27:08.334Z,99.9
2022-10-09T06:29:12.219Z,99.9
2022-10-09T06:31:16.230Z,99.9
2022-10-09T06:33:22.877Z,99.9
2022-10-09T06:35:26.768Z,99.9
2022-10-09T06:37:30.660Z,99.9
2022-10-09T06:39:34.587Z,99.9
2022-10-09T06:41:38.458Z,99.9
2022-10-09T06:43:42.341Z,99.9
2022-10-09T06:45:46.310Z,99.9
2022-10-09T06:47:53.050Z,99.9
2022-10-09T06:49:57.056Z,99.9
2022-10-09T06:52:00.809Z,99.9
2022-10-09T06:57:12.016Z,99.9
2022-10-09T06:59:15.883Z,99.9
2022-10-09T07:01:22.728Z,99.9
2022-10-09T07:03:26.604Z,99.9
2022-10-09T07:05:30.641Z,99.9
2022-10-09T07:07:34.373Z,99.9
2022-10-09T07:11:42.062Z,99.9
2022-10-09T07:13:45.969Z,99.9
2022-10-09T07:15:52.894Z,99.9
2022-10-09T07:17:56.725Z,99.9
2022-10-09T07:20:00.622Z,99.9
2022-10-09T07:22:04.501Z,99.9
2022-10-09T07:24:08.390Z,99.9
2022-10-09T07:26:12.353Z,99.9
2022-10-09T07:28:16.280Z,99.9
2022-10-09T07:30:23.098Z,99.9
2022-10-09T07:32:27.013Z,99.9
2022-10-09T07:34:30.940Z,99.9
2022-10-09T07:36:34.877Z,99.9
2022-10-09T07:38:38.694Z,99.9
2022-10-09T07:40:42.655Z,99.9
2022-10-09T07:42:46.974Z,99.9
2022-10-09T07:46:57.422Z,99.9
2022-10-09T07:49:01.265Z,99.9
2022-10-09T07:54:12.311Z,99.9
2022-10-09T07:56:16.133Z,99.9
2022-10-09T07:58:22.828Z,99.9
2022-10-09T08:00:26.742Z,99.9
2022-10-09T08:02:30.794Z,99.9
2022-10-09T08:04:34.687Z,99.9
2022-10-09T08:06:38.569Z,99.9
2022-10-09T08:08:42.443Z,99.9
2022-10-09T08:10:46.332Z,99.9
2022-10-09T08:12:53.048Z,99.9
2022-10-09T08:14:56.960Z,99.9
2022-10-09T08:17:00.873Z,99.9
2022-10-09T08:19:04.780Z,99.9
2022-10-09T08:21:08.702Z,99.9
2022-10-09T08:23:12.630Z,99.9
2022-10-09T08:25:16.557Z,99.9
2022-10-09T08:27:23.295Z,99.9
2022-10-09T08:29:27.229Z,99.9
2022-10-09T08:31:31.221Z,99.9
2022-10-09T08:33:35.086Z,99.9
2022-10-09T08:35:39.011Z,99.9
2022-10-09T08:37:42.963Z,99.9
2022-10-09T08:39:46.905Z,99.9
2022-10-09T08:41:53.681Z,99.9
2022-10-09T08:43:57.619Z,99.9
2022-10-09T08:46:01.638Z,99.9
2022-10-09T08:49:08.875Z,99.9
2022-10-09T08:51:12.834Z,99.9
2022-10-09T08:55:23.568Z,99.9
2022-10-09T08:59:31.441Z,99.9
2022-10-09T09:01:35.477Z,99.9
2022-10-09T09:05:43.322Z,99.9
2022-10-09T09:07:47.262Z,99.9
2022-10-09T09:09:55.543Z,99.9
2022-10-09T09:11:59.468Z,99.9
2022-10-09T09:14:03.445Z,99.9
2022-10-09T09:16:07.424Z,99.9
2022-10-09T09:18:11.328Z,99.9
2022-10-09T09:20:15.282Z,99.9
2022-10-09T09:22:19.230Z,99.9
2022-10-09T09:24:26.021Z,99.9
2022-10-09T09:26:29.958Z,99.9
2022-10-09T09:28:33.997Z,99.9
2022-10-09T09:32:41.824Z,99.9
2022-10-09T09:36:49.724Z,99.9
2022-10-09T09:39:40.837Z,99.9
2022-10-09T09:41:00.472Z,99.9
2022-10-09T09:43:05.051Z,99.9
2022-10-09T09:45:28.391Z,99.9
2022-10-09T09:47:32.315Z,99.9
2022-10-09T09:49:36.277Z,99.9
2022-10-09T09:51:43.061Z,99.9
2022-10-09T09:53:47.011Z,99.9
2022-10-09T09:55:50.949Z,99.9
2022-10-09T09:57:54.918Z,99.9
2022-10-09T09:59:58.864Z,99.9
2022-10-09T10:02:02.822Z,99.9
2022-10-09T10:04:06.742Z,99.9
2022-10-09T10:06:13.539Z,99.9
2022-10-09T10:08:17.480Z,99.9
2022-10-09T10:10:25.333Z,99.9
2022-10-09T10:14:29.327Z,95.9
2022-10-09T10:16:33.411Z,94.5
2022-10-09T10:18:37.243Z,93.4
2022-10-09T10:20:44.012Z,96.6
2022-10-09T10:22:48.280Z,97.8
2022-10-09T10:24:51.911Z,97.7
2022-10-09T10:26:55.863Z,77.6
2022-10-09T10:28:59.814Z,93.4
2022-10-09T10:31:03.789Z,92.4
2022-10-09T10:33:07.734Z,92.7
2022-10-09T10:35:14.507Z,99.8
2022-10-09T10:37:18.458Z,94.4
2022-10-09T10:39:22.399Z,81.4
2022-10-09T10:42:29.750Z,90
2022-10-09T10:44:33.691Z,99.6
2022-10-09T10:46:37.698Z,87.6
2022-10-09T10:57:00.170Z,94.7
2022-10-09T10:59:04.114Z,95.5
2022-10-09T11:05:18.781Z,73.5
2022-10-09T11:07:22.724Z,67.6
2022-10-09T11:11:30.623Z,62
2022-10-09T11:13:34.563Z,61.8
2022-10-09T11:19:49.236Z,63.1
2022-10-09T11:21:53.182Z,54.5
2022-10-09T11:23:57.101Z,54.4
2022-10-09T11:26:01.061Z,70.8
2022-10-09T11:28:05.073Z,71
2022-10-09T11:30:08.946Z,70.7
2022-10-09T11:32:15.699Z,59.7
2022-10-09T11:34:19.653Z,62
2022-10-09T11:36:23.586Z,59.1
2022-10-09T11:37:26.986Z,57.9
2022-10-09T11:39:30.909Z,57.6
2022-10-09T11:41:34.861Z,57.4
2022-10-09T11:43:38.807Z,59.3
2022-10-09T11:45:45.649Z,59.9
2022-10-09T11:47:49.723Z,67.8
2022-10-09T11:49:53.436Z,95.8
2022-10-09T11:51:57.383Z,95.7
2022-10-09T11:54:01.351Z,96.9
2022-10-09T11:56:05.282Z,97.9
2022-10-09T11:58:09.212Z,98.2
2022-10-09T12:00:15.986Z,99.5
2022-10-09T12:02:19.987Z,99.5
2022-10-09T12:04:32.417Z,99.9
2022-10-09T12:06:27.821Z,99.9
2022-10-09T12:08:31.784Z,99.9
2022-10-09T12:10:35.712Z,99.9
2022-10-09T12:12:39.650Z,99.9
2022-10-09T12:14:46.520Z,99.9
2022-10-09T12:16:50.501Z,99.9
2022-10-09T12:18:54.338Z,99.9
2022-10-09T12:20:58.283Z,99.9
2022-10-09T12:23:25.320Z,99.9
2022-10-09T12:25:06.201Z,99.9
2022-10-09T12:27:10.140Z,99.9
2022-10-09T12:29:16.908Z,99.9
2022-10-09T12:31:20.917Z,99.9
2022-10-09T12:33:24.809Z,99.9
2022-10-09T12:34:28.202Z,99.9
2022-10-09T12:36:32.153Z,99.9
2022-10-09T12:38:36.060Z,99.9
2022-10-09T12:40:40.030Z,99.9
2022-10-09T12:42:47.336Z,99.9
2022-10-09T12:44:50.721Z,99.9
2022-10-09T12:46:54.677Z,99.9
2022-10-09T12:48:58.620Z,99.9
2022-10-09T12:51:02.561Z,99.9
2022-10-09T12:55:10.465Z,99.9
2022-10-09T12:57:17.292Z,99.9
2022-10-09T12:59:21.225Z,99.9
2022-10-09T13:01:25.337Z,99.9
2022-10-09T13:13:51.699Z,99.9
2022-10-09T13:15:55.651Z,99.9
2022-10-09T13:17:59.602Z,99.9
2022-10-09T13:20:03.580Z,99.9
2022-10-09T13:22:07.519Z,99.9
2022-10-09T13:24:11.461Z,99.9
2022-10-09T13:26:18.235Z,99.9
2022-10-09T13:28:22.300Z,99.9
2022-10-09T13:30:26.212Z,99.9
2022-10-09T13:37:03.701Z,99.9
2022-10-09T13:39:10.494Z,99.9
2022-10-09T13:41:14.432Z,99.9
2022-10-09T13:43:18.383Z,99.9
2022-10-09T13:45:22.508Z,99.9
2022-10-09T13:47:26.292Z,99.9
2022-10-09T13:49:30.251Z,99.9
2022-10-09T13:51:34.190Z,99.9
2022-10-09T13:53:40.978Z,99.9
2022-10-09T13:55:44.935Z,99.9
2022-10-09T13:57:49.223Z,99.9
2022-10-09T14:01:56.859Z,99.9
2022-10-09T14:04:00.746Z,99.9
2022-10-09T14:08:11.441Z,99.7
2022-10-09T14:10:15.729Z,98.3
2022-10-09T14:12:19.349Z,97.3
2022-10-09T14:14:23.326Z,97.5
2022-10-09T14:16:27.240Z,96.8
2022-10-09T14:18:31.196Z,98
2022-10-09T14:22:41.942Z,98.6
2022-10-09T14:26:51.736Z,98.6
2022-10-09T14:27:53.233Z,95.1
2022-10-09T14:29:57.425Z,94.6
2022-10-09T14:32:01.137Z,95.2
2022-10-09T14:34:05.074Z,95.4
2022-10-09T14:36:11.855Z,96.4
2022-10-09T14:38:15.813Z,96.5
2022-10-09T14:40:19.750Z,97.2
2022-10-09T14:42:23.688Z,98.2
2022-10-09T14:44:27.652Z,98.5
2022-10-09T14:46:31.596Z,99.1
2022-10-09T14:48:35.545Z,99.5
2022-10-09T14:50:42.312Z,99.9
2022-10-09T14:54:50.208Z,99.9
2022-10-09T14:56:54.154Z,99.9
2022-10-09T14:58:58.119Z,99.9
2022-10-09T15:01:02.060Z,99.9
2022-10-09T15:03:06.047Z,99.9
2022-10-09T15:05:12.800Z,99.9
2022-10-09T15:09:22.195Z,99.9
2022-10-09T15:11:26.109Z,99.9
2022-10-09T15:13:30.068Z,99.9
2022-10-09T15:15:34.130Z,99.9
2022-10-09T15:17:37.959Z,99.9
2022-10-09T15:21:48.676Z,99.9
2022-10-09T15:23:52.625Z,99.9
2022-10-09T15:29:03.885Z,99.9
2022-10-09T15:31:07.844Z,99.9
2022-10-09T15:33:14.599Z,99.9
2022-10-09T15:35:18.540Z,99.9
2022-10-09T15:37:22.505Z,99.9
2022-10-09T15:39:26.450Z,99.9
2022-10-09T15:41:30.418Z,99.9
2022-10-09T15:43:37.610Z,99.9
2022-10-09T15:45:38.304Z,99.9
2022-10-09T15:47:50.880Z,99.9
2022-10-09T15:49:53.226Z,99.9
2022-10-09T15:51:52.987Z,99.9
2022-10-09T15:53:56.934Z,99.9
2022-10-09T15:58:04.826Z,99.9
2022-10-09T16:00:08.788Z,99.9
2022-10-09T16:02:15.554Z,99.9
2022-10-09T16:04:19.504Z,99.9
2022-10-09T16:06:23.460Z,99.9
2022-10-09T16:08:27.405Z,99.9
2022-10-09T16:10:31.358Z,99.9
2022-10-09T16:12:35.297Z,99.9
2022-10-09T16:14:39.253Z,99.9
2022-10-09T16:16:46.028Z,99.9
2022-10-09T16:20:53.926Z,99.9
2022-10-09T16:21:57.319Z,99.9
2022-10-09T16:24:01.259Z,99.9
2022-10-09T16:26:05.208Z,99.9
2022-10-09T16:28:09.271Z,99.9
2022-10-09T16:30:15.917Z,99.9
2022-10-09T16:32:19.879Z,99.9
2022-10-09T16:34:23.815Z,99.9
2022-10-09T16:36:27.756Z,99.9
2022-10-09T16:38:31.687Z,99.9
2022-10-09T16:41:00.985Z,99.9
2022-10-09T16:42:39.605Z,99.9
2022-10-09T16:48:55.270Z,99.9
2022-10-09T16:50:58.215Z,99.9
2022-10-09T16:57:10.042Z,99.9
2022-10-09T16:59:16.818Z,99.9
2022-10-09T17:03:24.692Z,99.9
2022-10-09T17:05:28.781Z,99.9
2022-10-09T17:09:36.538Z,99.9
2022-10-09T17:11:40.476Z,99.9
2022-10-09T17:13:47.259Z,99.9
2022-10-09T17:15:51.188Z,99.9
2022-10-09T17:17:55.127Z,99.9
2022-10-09T17:20:24.847Z,99.9
2022-10-09T17:22:28.768Z,99.9
2022-10-09T17:24:32.721Z,99.9
2022-10-09T17:26:39.482Z,99.9
2022-10-09T17:28:43.478Z,99.9
2022-10-09T17:30:47.377Z,99.9
2022-10-09T17:34:55.238Z,99.9
2022-10-09T17:41:09.890Z,99.9
2022-10-09T17:43:13.821Z,99.9
2022-10-09T17:45:17.769Z,99.9
2022-10-09T17:47:21.694Z,99.9
2022-10-09T17:49:25.654Z,99.9
2022-10-09T17:51:29.581Z,99.9
2022-10-09T17:53:33.525Z,99.9
2022-10-09T17:55:40.469Z,99.9
2022-10-09T17:57:44.425Z,99.9
2022-10-09T17:59:48.153Z,99.9
2022-10-09T18:01:52.072Z,99.9
2022-10-09T18:03:56.020Z,99.9
2022-10-09T18:05:59.943Z,99.9
2022-10-09T18:08:03.895Z,99.9
2022-10-09T18:12:14.563Z,99.9
2022-10-09T18:15:21.861Z,99.9
2022-10-09T18:17:25.819Z,99.9
2022-10-09T18:19:29.821Z,99.9
2022-10-09T18:21:33.773Z,99.9
2022-10-09T18:23:40.489Z,99.9
2022-10-09T18:25:44.419Z,99.9
2022-10-09T18:27:48.795Z,99.9
2022-10-09T18:29:52.275Z,99.9
2022-10-09T18:31:56.213Z,99.9
2022-10-09T18:34:00.137Z,99.9
2022-10-09T18:36:04.032Z,99.9
2022-10-09T18:38:10.769Z,99.9
2022-10-09T18:40:14.717Z,99.9
2022-10-09T18:42:18.632Z,99.9
2022-10-09T18:44:22.534Z,99.9
2022-10-09T18:46:26.475Z,99.9
2022-10-09T18:48:30.351Z,99.9
2022-10-09T18:50:34.285Z,99.9
2022-10-09T18:52:41.135Z,99.9
2022-10-09T18:54:45.025Z,99.9
2022-10-09T18:56:49.040Z,99.9
2022-10-09T18:58:52.972Z,99.9
2022-10-09T19:00:56.988Z,99.9
2022-10-09T19:05:04.749Z,99.9
2022-10-09T19:09:15.338Z,99.9
2022-10-09T19:11:19.358Z,99.9
2022-10-09T19:12:22.716Z,99.9
2022-10-09T19:14:26.614Z,99.9
2022-10-09T19:16:30.521Z,99.9
2022-10-09T19:18:34.420Z,99.9
2022-10-09T19:20:41.212Z,99.9
2022-10-09T19:22:45.111Z,99.9
2022-10-09T19:24:49.092Z,99.9
2022-10-09T19:26:53.081Z,99.9
2022-10-09T19:28:56.967Z,99.9
2022-10-09T19:31:00.879Z,99.9
2022-10-09T19:33:04.748Z,99.9
2022-10-09T19:35:11.452Z,99.9
2022-10-09T19:37:15.339Z,99.9
2022-10-09T19:39:19.222Z,99.9
2022-10-09T19:41:23.101Z,99.9
2022-10-09T19:43:26.976Z,99.9
2022-10-09T19:45:30.867Z,99.9
2022-10-09T19:47:34.732Z,99.9
2022-10-09T19:51:45.308Z,99.9
2022-10-09T19:55:53.183Z,99.9
2022-10-09T20:02:04.881Z,99.9
2022-10-09T20:04:11.557Z,99.9
2022-10-09T20:06:15.424Z,99.9
2022-10-09T20:09:22.766Z,99.9
2022-10-09T20:11:26.635Z,99.9
2022-10-09T20:13:30.509Z,99.9
2022-10-09T20:15:34.488Z,99.9
2022-10-09T20:17:41.045Z,99.9
2022-10-09T20:19:45.780Z,99.9
2022-10-09T20:21:48.774Z,99.9
2022-10-09T20:23:52.634Z,99.9
2022-10-09T20:25:56.585Z,99.9
2022-10-09T20:28:00.467Z,99.9
2022-10-09T20:30:04.347Z,99.9
2022-10-09T20:32:11.115Z,99.9
2022-10-09T20:34:14.962Z,99.9
2022-10-09T20:36:18.812Z,99.9
2022-10-09T20:38:25.775Z,99.9
2022-10-09T20:40:26.610Z,99.9
2022-10-09T20:42:30.458Z,99.9
2022-10-09T20:46:41.161Z,99.9
2022-10-09T20:48:45.113Z,99.9
2022-10-09T20:50:48.956Z,99.9
2022-10-09T20:52:52.949Z,99.9
2022-10-09T20:54:56.627Z,99.9
2022-10-09T20:57:00.471Z,99.9
2022-10-09T20:59:04.431Z,99.9
2022-10-09T21:03:14.921Z,99.9
2022-10-09T21:05:20.373Z,99.9
2022-10-09T21:14:04.749Z,99.9
2022-10-09T21:16:08.699Z,99.9
2022-10-09T21:18:12.552Z,99.9
2022-10-09T21:20:16.500Z,99.9
2022-10-09T21:22:20.350Z,99.9
2022-10-09T21:24:24.186Z,99.9
2022-10-09T21:26:28.138Z,99.9
2022-10-09T21:32:42.514Z,99.9
2022-10-09T21:37:16.458Z,99.9
2022-10-09T21:38:54.298Z,99.9
2022-10-09T21:40:58.142Z,99.9
2022-10-09T21:43:04.937Z,99.9
2022-10-09T21:47:12.614Z,99.9
2022-10-09T21:49:16.455Z,99.9
2022-10-09T21:51:20.307Z,99.9
2022-10-09T21:53:24.202Z,99.9
2022-10-09T21:55:28.068Z,99.9
2022-10-09T21:57:34.828Z,99.9
2022-10-09T21:59:38.681Z,99.9
2022-10-09T22:01:42.615Z,99.9
2022-10-09T22:02:45.878Z,99.9
2022-10-09T22:04:49.708Z,99.9
2022-10-09T22:06:53.671Z,99.9
2022-10-09T22:08:57.626Z,99.9
2022-10-09T22:11:04.412Z,99.9
2022-10-09T22:15:12.218Z,99.9
2022-10-09T22:19:20.138Z,99.9
2022-10-09T22:21:24.099Z,99.9
2022-10-09T22:23:28.017Z,99.9
2022-10-09T22:25:34.806Z,99.9
2022-10-09T22:27:38.750Z,99.9
2022-10-09T22:29:42.702Z,99.9
2022-10-09T22:31:46.647Z,99.9
2022-10-09T22:33:50.510Z,99.9
2022-10-09T22:35:54.340Z,99.9
2022-10-09T22:40:05.080Z,99.9
2022-10-09T22:42:08.909Z,99.9
2022-10-09T22:44:12.871Z,99.9
2022-10-09T22:46:16.828Z,99.9
2022-10-09T22:48:20.768Z,99.9
2022-10-09T22:50:24.810Z,99.9
2022-10-09T22:52:28.549Z,99.9
2022-10-09T22:54:35.297Z,99.9
2022-10-09T22:56:39.127Z,99.9
2022-10-09T22:58:43.065Z,99.9
2022-10-09T22:59:46.413Z,99.9
2022-10-09T23:01:50.255Z,99.9
2022-10-09T23:03:54.046Z,99.9
2022-10-09T23:05:57.997Z,99.9
2022-10-09T23:08:04.762Z,99.9
2022-10-09T23:10:08.609Z,99.9
2022-10-09T23:12:12.426Z,99.9
2022-10-09T23:14:16.240Z,99.9
2022-10-09T23:16:20.112Z,99.9
2022-10-09T23:18:24.003Z,99.9
2022-10-09T23:20:27.855Z,99.9
2022-10-09T23:22:34.502Z,99.9
2022-10-09T23:24:38.327Z,99.9
2022-10-09T23:26:42.182Z,99.9
2022-10-09T23:30:49.868Z,99.9
2022-10-09T23:32:53.688Z,99.9
2022-10-09T23:34:57.521Z,99.9
2022-10-09T23:37:04.160Z,99.9
2022-10-09T23:39:08.006Z,99.9
2022-10-09T23:41:11.951Z,99.9
2022-10-09T23:43:15.793Z,99.9
2022-10-09T23:45:19.633Z,99.9
2022-10-09T23:47:23.576Z,99.9
2022-10-09T23:49:27.452Z,99.9
2022-10-09T23:51:34.169Z,99.9
2022-10-09T23:53:38.121Z,99.9
2022-10-09T23:55:42.068Z,99.9
2022-10-09T23:56:45.501Z,99.9
2022-10-09T23:58:49.328Z,99.9
